Time;durP1;ratioP1;P1;durP2;ratioP2;P2;SDS_P1;SDS_P2;PMS_P1;PMS_P2;Temp;Humidity;BMP_temperature;BMP_pressure;BME280_temperature;BME280_humidity;BME280_pressure;Samples;Min_cycle;Max_cycle;Signal;HPM_P1;HPM_P2
2023/05/30 00:01:27;;;;;;;7.67;4.17;;;21.20;57.00;;;;;;5053203;28;20312;-76
2023/05/30 00:03:55;;;;;;;5.10;3.50;;;21.10;57.20;;;;;;5052145;28;20206;-76
2023/05/30 00:06:22;;;;;;;5.17;3.97;;;21.10;57.30;;;;;;5050322;28;20658;-76
2023/05/30 00:08:49;;;;;;;4.90;3.80;;;21.00;57.40;;;;;;5054043;28;20284;-79
2023/05/30 00:11:18;;;;;;;5.07;4.10;;;21.00;57.50;;;;;;5051687;28;20281;-78
2023/05/30 00:13:45;;;;;;;5.43;3.80;;;21.00;57.60;;;;;;5053125;28;20728;-80
2023/05/30 00:16:14;;;;;;;4.40;3.67;;;20.90;57.90;;;;;;5052967;28;20229;-78
2023/05/30 00:18:41;;;;;;;5.77;3.50;;;20.90;58.80;;;;;;5053437;28;20232;-78
2023/05/30 00:21:10;;;;;;;5.77;3.80;;;20.80;58.20;;;;;;5043720;28;20706;-75
2023/05/30 00:23:39;;;;;;;6.47;4.07;;;20.80;58.40;;;;;;5043750;28;20662;-74
2023/05/30 00:26:08;;;;;;;4.53;3.47;;;20.80;58.60;;;;;;5018045;28;20221;-78
2023/05/30 00:28:35;;;;;;;6.70;4.23;;;20.70;58.70;;;;;;5035134;28;20253;-76
2023/05/30 00:31:02;;;;;;;4.57;3.77;;;20.70;58.60;;;;;;5033488;28;20228;-75
2023/05/30 00:33:30;;;;;;;4.60;3.63;;;20.70;58.70;;;;;;5052890;28;20669;-76
2023/05/30 00:35:57;;;;;;;6.60;3.63;;;20.70;58.90;;;;;;5052574;28;20240;-76
2023/05/30 00:38:24;;;;;;;6.87;4.50;;;20.70;59.10;;;;;;5035223;28;20208;-76
2023/05/30 00:40:51;;;;;;;4.40;3.27;;;20.60;59.20;;;;;;5053047;28;20304;-75
2023/05/30 00:43:19;;;;;;;4.20;3.73;;;20.50;59.30;;;;;;5052650;28;20737;-76
2023/05/30 00:45:46;;;;;;;4.90;3.80;;;20.50;59.50;;;;;;5052123;28;20197;-77
2023/05/30 00:48:14;;;;;;;6.20;3.77;;;20.50;59.70;;;;;;5052530;28;20320;-76
2023/05/30 00:50:43;;;;;;;5.80;3.60;;;20.40;60.00;;;;;;5052336;28;20202;-76
2023/05/30 00:53:10;;;;;;;5.37;3.47;;;20.40;60.30;;;;;;5052313;28;20208;-77
2023/05/30 00:55:38;;;;;;;7.83;4.30;;;20.40;61.10;;;;;;5052677;28;20676;-75
2023/05/30 00:58:05;;;;;;;4.70;4.10;;;20.40;60.30;;;;;;5034112;28;20201;-76
2023/05/30 01:00:37;;;;;;;4.97;3.70;;;20.40;61.10;;;;;;5052546;28;20236;-77
2023/05/30 01:03:05;;;;;;;5.10;3.90;;;20.40;60.50;;;;;;5033970;28;20575;-75
2023/05/30 01:05:32;;;;;;;4.43;3.47;;;20.40;60.70;;;;;;5052483;28;20201;-75
2023/05/30 01:08:00;;;;;;;7.67;3.70;;;20.40;60.70;;;;;;5034825;28;20209;-78
2023/05/30 01:10:27;;;;;;;4.97;3.70;;;20.30;60.70;;;;;;5056849;28;20415;-77
2023/05/30 01:13:07;;;;;;;7.57;4.00;;;20.30;61.00;;;;;;5039044;28;20288;-76
2023/05/30 01:15:39;;;;;;;5.37;3.80;;;20.30;61.40;;;;;;5056732;28;20205;-76
2023/05/30 01:18:16;;;;;;;7.90;3.90;;;20.20;61.40;;;;;;5056528;28;20304;-74
2023/05/30 01:20:48;;;;;;;6.40;3.83;;;20.20;61.50;;;;;;5056422;28;20209;-77
2023/05/30 01:23:37;;;;;;;6.37;3.97;;;20.20;61.60;;;;;;5056030;28;20214;-76
2023/05/30 01:26:23;;;;;;;5.63;4.23;;;20.20;62.30;;;;;;5056437;28;20264;-75
2023/05/30 01:28:54;;;;;;;4.63;3.87;;;20.20;62.30;;;;;;5038728;28;20321;-75
2023/05/30 01:31:23;;;;;;;5.47;3.67;;;20.10;61.90;;;;;;5048577;28;20201;-76
2023/05/30 01:33:51;;;;;;;4.83;3.37;;;20.10;61.90;;;;;;5036204;28;20206;-75
2023/05/30 01:36:18;;;;;;;6.23;4.10;;;20.10;62.20;;;;;;5041389;28;20216;-77
2023/05/30 01:38:45;;;;;;;5.77;3.73;;;20.00;62.10;;;;;;5055968;28;20664;-77
2023/05/30 01:41:18;;;;;;;4.57;3.40;;;20.00;62.10;;;;;;5055959;28;20209;-77
2023/05/30 01:43:50;;;;;;;7.03;3.73;;;19.90;62.30;;;;;;5055926;28;20197;-75
2023/05/30 01:46:28;;;;;;;4.63;3.53;;;19.90;62.70;;;;;;5055974;28;20206;-77
2023/05/30 01:49:01;;;;;;;4.93;4.10;;;19.90;62.90;;;;;;5055568;28;20217;-76
2023/05/30 01:51:32;;;;;;;5.63;3.80;;;19.80;62.80;;;;;;5055596;28;20225;-78
2023/05/30 01:54:02;;;;;;;4.50;3.80;;;19.80;62.70;;;;;;5055979;28;20202;-78
2023/05/30 01:56:31;;;;;;;7.77;4.13;;;19.80;62.70;;;;;;5055670;28;20198;-77
2023/05/30 01:58:59;;;;;;;6.50;4.20;;;19.80;62.80;;;;;;5055466;28;20317;-78
2023/05/30 02:01:29;;;;;;;6.73;3.90;;;19.70;62.70;;;;;;5055333;28;20705;-76
2023/05/30 02:03:56;;;;;;;6.60;4.10;;;19.70;63.00;;;;;;5052536;28;20285;-74
2023/05/30 02:06:24;;;;;;;4.03;3.57;;;19.70;62.90;;;;;;5055175;28;20673;-77
2023/05/30 02:08:50;;;;;;;5.20;3.83;;;19.70;63.10;;;;;;5037296;28;20218;-77
2023/05/30 02:11:18;;;;;;;6.17;3.93;;;19.70;63.00;;;;;;5055650;28;20209;-77
2023/05/30 02:13:45;;;;;;;5.57;4.23;;;19.60;63.20;;;;;;5055447;28;20209;-75
2023/05/30 02:16:12;;;;;;;5.97;3.70;;;19.60;63.30;;;;;;5055200;28;20206;-79
2023/05/30 02:18:41;;;;;;;5.80;4.23;;;19.60;63.30;;;;;;5055476;28;20549;-76
2023/05/30 02:21:08;;;;;;;8.50;4.07;;;19.60;63.60;;;;;;5054002;28;20221;-78
2023/05/30 02:23:36;;;;;;;6.27;4.30;;;19.50;63.40;;;;;;5055602;28;20647;-79
2023/05/30 02:26:03;;;;;;;7.23;4.37;;;19.50;63.50;;;;;;5050652;28;20206;-80
2023/05/30 02:28:30;;;;;;;7.30;4.17;;;19.50;63.50;;;;;;5055095;28;20206;-79
2023/05/30 02:30:57;;;;;;;7.03;3.83;;;19.50;63.50;;;;;;5055001;28;20472;-79
2023/05/30 02:33:24;;;;;;;5.03;3.97;;;19.40;63.50;;;;;;5054745;28;20544;-79
2023/05/30 02:35:52;;;;;;;8.93;4.00;;;19.40;63.60;;;;;;5055377;28;20202;-80
2023/05/30 02:38:19;;;;;;;5.10;3.40;;;19.30;63.60;;;;;;5055396;28;20327;-80
2023/05/30 02:40:46;;;;;;;12.57;4.20;;;19.30;63.80;;;;;;5055679;28;20212;-79
2023/05/30 02:43:14;;;;;;;6.63;4.13;;;19.40;63.90;;;;;;5055731;28;20622;-78
2023/05/30 02:45:41;;;;;;;5.30;4.00;;;19.30;63.80;;;;;;5054980;28;20229;-79
2023/05/30 02:48:08;;;;;;;5.47;4.17;;;19.30;63.90;;;;;;5049232;28;20536;-78
2023/05/30 02:50:35;;;;;;;7.27;4.60;;;19.30;63.80;;;;;;5054859;28;20221;-79
2023/05/30 02:53:04;;;;;;;5.50;4.27;;;19.30;63.40;;;;;;5055524;28;20621;-79
2023/05/30 02:55:31;;;;;;;6.03;4.23;;;19.20;63.50;;;;;;5037007;28;20612;-78
2023/05/30 02:57:58;;;;;;;5.53;4.33;;;19.20;63.60;;;;;;5047630;28;20218;-80
2023/05/30 03:00:25;;;;;;;6.83;4.23;;;19.20;63.90;;;;;;5050016;28;20226;-78
2023/05/30 03:02:52;;;;;;;5.50;3.90;;;19.10;63.80;;;;;;5054355;28;20201;-76
2023/05/30 03:05:19;;;;;;;5.63;3.93;;;19.10;63.80;;;;;;5054730;28;20245;-79
2023/05/30 03:07:46;;;;;;;7.93;4.23;;;19.10;64.00;;;;;;5054981;28;20197;-77
2023/05/30 03:10:14;;;;;;;5.77;3.87;;;19.00;64.10;;;;;;5055177;28;20222;-79
2023/05/30 03:12:41;;;;;;;7.53;4.37;;;19.00;64.20;;;;;;5054803;28;20213;-78
2023/05/30 03:15:09;;;;;;;5.50;4.50;;;19.00;64.20;;;;;;5054630;28;20233;-79
2023/05/30 03:17:37;;;;;;;4.33;3.77;;;19.00;64.20;;;;;;5053949;28;20225;-78
2023/05/30 03:20:06;;;;;;;8.00;4.40;;;18.90;64.20;;;;;;5054776;28;20214;-79
2023/05/30 03:22:33;;;;;;;5.40;4.07;;;18.90;64.30;;;;;;5054792;28;20231;-78
2023/05/30 03:25:00;;;;;;;6.07;4.03;;;18.80;64.10;;;;;;5054342;28;20589;-78
2023/05/30 03:27:29;;;;;;;5.83;4.47;;;18.80;64.40;;;;;;5054575;28;20208;-78
2023/05/30 03:29:57;;;;;;;8.77;3.97;;;18.80;64.40;;;;;;5054331;28;20260;-79
2023/05/30 03:32:24;;;;;;;5.13;3.57;;;18.80;64.40;;;;;;5053860;28;20480;-78
2023/05/30 03:34:51;;;;;;;5.37;3.90;;;18.80;64.70;;;;;;5054695;28;20202;-78
2023/05/30 03:37:18;;;;;;;6.40;4.33;;;18.70;64.70;;;;;;5054029;28;20233;-78
2023/05/30 03:39:44;;;;;;;7.17;4.13;;;18.70;64.80;;;;;;5036468;28;20684;-79
2023/05/30 03:42:11;;;;;;;7.00;4.27;;;18.60;64.80;;;;;;5054474;28;20256;-79
2023/05/30 03:44:40;;;;;;;6.10;4.23;;;18.70;65.20;;;;;;5053913;28;20222;-78
2023/05/30 03:47:07;;;;;;;5.97;3.80;;;18.60;65.50;;;;;;5054132;28;20531;-79
2023/05/30 03:49:33;;;;;;;5.47;4.67;;;18.60;65.70;;;;;;5054200;28;20834;-78
2023/05/30 03:52:00;;;;;;;7.10;4.23;;;18.60;65.90;;;;;;5054099;28;20312;-80
2023/05/30 03:54:27;;;;;;;5.30;3.97;;;18.50;65.80;;;;;;5053973;28;20452;-76
2023/05/30 03:56:54;;;;;;;6.30;3.83;;;18.50;66.00;;;;;;5053352;28;20286;-79
2023/05/30 03:59:24;;;;;;;5.20;4.07;;;18.40;66.10;;;;;;5053697;28;20189;-76
2023/05/30 04:01:52;;;;;;;5.83;4.03;;;18.40;66.00;;;;;;5053810;28;20257;-78
2023/05/30 04:04:19;;;;;;;6.53;4.13;;;18.40;66.10;;;;;;5053624;28;20212;-79
2023/05/30 04:06:47;;;;;;;6.73;4.13;;;18.40;65.90;;;;;;5053325;28;20880;-77
2023/05/30 04:09:14;;;;;;;4.47;3.60;;;18.40;66.00;;;;;;5053950;28;20480;-78
2023/05/30 04:11:41;;;;;;;5.73;4.20;;;18.40;65.90;;;;;;5053362;28;20559;-77
2023/05/30 04:14:08;;;;;;;5.90;3.63;;;18.40;65.80;;;;;;5053679;28;20449;-75
2023/05/30 04:16:35;;;;;;;6.20;3.80;;;18.40;65.80;;;;;;5053257;28;20248;-76
2023/05/30 04:19:04;;;;;;;6.13;3.87;;;18.40;65.70;;;;;;5053422;28;20476;-79
2023/05/30 04:21:32;;;;;;;5.27;3.80;;;18.40;65.70;;;;;;5035954;28;20878;-80
2023/05/30 04:23:59;;;;;;;11.70;4.53;;;18.40;65.70;;;;;;5053647;28;20532;-80
2023/05/30 04:26:26;;;;;;;8.83;4.67;;;18.40;66.20;;;;;;5053236;28;20473;-78
2023/05/30 04:28:56;;;;;;;9.23;4.23;;;18.40;67.20;;;;;;5053212;28;20741;-76
2023/05/30 04:31:24;;;;;;;9.17;3.83;;;18.50;66.50;;;;;;5035684;28;20253;-76
2023/05/30 04:33:51;;;;;;;8.43;4.07;;;18.50;66.50;;;;;;5047379;28;20453;-75
2023/05/30 04:36:19;;;;;;;9.07;4.07;;;18.50;66.60;;;;;;5038651;28;20445;-78
2023/05/30 04:38:47;;;;;;;6.13;3.90;;;18.50;66.50;;;;;;5052692;28;20468;-79
2023/05/30 04:41:20;;;;;;;6.67;3.60;;;18.60;66.40;;;;;;5053167;28;20638;-77
2023/05/30 04:43:52;;;;;;;5.70;3.73;;;18.60;66.40;;;;;;5052448;28;20460;-76
2023/05/30 04:46:21;;;;;;;5.87;4.43;;;18.60;66.20;;;;;;5052852;28;20480;-76
2023/05/30 04:48:52;;;;;;;7.90;4.27;;;18.60;66.30;;;;;;5050905;28;20508;-76
2023/05/30 04:51:20;;;;;;;8.47;4.00;;;18.60;66.60;;;;;;5052083;28;20227;-77
2023/05/30 04:53:47;;;;;;;10.43;4.37;;;18.70;66.80;;;;;;5052953;28;20921;-78
2023/05/30 04:56:16;;;;;;;11.67;5.47;;;18.70;66.80;;;;;;5053023;28;20456;-76
2023/05/30 04:58:45;;;;;;;20.37;6.90;;;18.70;67.20;;;;;;5034986;28;20225;-79
2023/05/30 05:01:13;;;;;;;15.77;6.70;;;18.80;67.50;;;;;;5053692;28;20221;-76
2023/05/30 05:03:40;;;;;;;26.73;8.43;;;18.80;67.50;;;;;;5053373;28;20962;-76
2023/05/30 05:06:08;;;;;;;20.73;7.63;;;18.90;67.70;;;;;;5053729;28;20226;-79
2023/05/30 05:08:37;;;;;;;9.93;4.83;;;18.90;68.00;;;;;;5052766;28;20297;-75
2023/05/30 05:11:05;;;;;;;4.73;3.70;;;19.00;67.00;;;;;;5053130;28;20480;-82
2023/05/30 05:13:32;;;;;;;5.83;3.80;;;19.00;67.00;;;;;;5000833;28;20201;-75
2023/05/30 05:16:00;;;;;;;4.33;3.40;;;19.10;66.50;;;;;;5053181;28;20285;-76
2023/05/30 05:18:27;;;;;;;8.03;3.77;;;19.10;66.40;;;;;;5035871;28;20217;-75
2023/05/30 05:20:54;;;;;;;6.40;3.87;;;19.20;66.30;;;;;;5053438;28;20202;-75
2023/05/30 05:23:22;;;;;;;4.63;3.30;;;19.30;66.20;;;;;;5052715;28;20201;-76
2023/05/30 05:25:50;;;;;;;5.67;3.83;;;19.30;66.10;;;;;;5053051;28;20225;-77
2023/05/30 05:28:17;;;;;;;9.93;4.07;;;19.40;66.00;;;;;;5052423;28;20296;-77
2023/05/30 05:30:45;;;;;;;4.87;3.43;;;19.40;65.90;;;;;;5053135;28;20317;-75
2023/05/30 05:33:13;;;;;;;6.07;3.50;;;19.50;66.00;;;;;;5053006;28;20226;-76
2023/05/30 05:35:40;;;;;;;5.47;3.70;;;19.50;65.90;;;;;;5052788;28;20251;-75
2023/05/30 05:38:07;;;;;;;4.97;3.50;;;19.50;65.70;;;;;;5052914;28;20201;-79
2023/05/30 05:40:34;;;;;;;7.53;3.87;;;19.60;65.90;;;;;;5052754;28;20316;-76
2023/05/30 05:43:03;;;;;;;6.30;4.00;;;19.60;65.60;;;;;;5053399;28;20463;-75
2023/05/30 05:45:30;;;;;;;4.30;3.20;;;19.70;65.50;;;;;;5053488;28;20618;-76
2023/05/30 05:47:57;;;;;;;4.80;3.13;;;19.80;65.30;;;;;;5052586;28;20314;-77
2023/05/30 05:50:24;;;;;;;7.33;3.77;;;19.80;65.00;;;;;;5052835;28;20221;-80
2023/05/30 05:52:51;;;;;;;6.53;3.00;;;19.90;65.10;;;;;;5051952;28;20202;-79
2023/05/30 05:55:17;;;;;;;4.93;3.57;;;19.90;64.90;;;;;;5055252;28;20655;-79
2023/05/30 05:57:44;;;;;;;4.97;3.20;;;20.00;64.60;;;;;;5052075;28;20233;-83
2023/05/30 06:00:15;;;;;;;5.23;3.00;;;20.10;64.10;;;;;;5047330;28;20281;-77
2023/05/30 06:02:42;;;;;;;5.00;3.10;;;20.10;64.00;;;;;;5037592;28;20268;-79
2023/05/30 06:05:10;;;;;;;4.53;3.50;;;20.20;63.60;;;;;;5037531;28;20199;-76
2023/05/30 06:07:37;;;;;;;5.40;3.00;;;20.30;64.30;;;;;;5036893;28;20547;-77
2023/05/30 06:10:04;;;;;;;4.97;3.30;;;20.40;63.60;;;;;;5041580;28;20515;-80
2023/05/30 06:12:32;;;;;;;7.53;3.37;;;20.40;63.40;;;;;;5056614;28;20214;-79
2023/05/30 06:14:58;;;;;;;7.83;3.30;;;20.50;63.80;;;;;;5037280;28;20237;-78
2023/05/30 06:17:27;;;;;;;5.83;3.40;;;20.50;63.40;;;;;;5018980;28;20207;-77
2023/05/30 06:19:54;;;;;;;11.03;3.57;;;20.60;62.80;;;;;;5036564;28;20209;-77
2023/05/30 06:22:21;;;;;;;4.83;3.13;;;20.70;62.80;;;;;;5053420;28;20248;-81
2023/05/30 06:24:48;;;;;;;5.77;3.23;;;20.70;62.60;;;;;;5054918;28;20202;-80
2023/05/30 06:27:15;;;;;;;6.20;2.90;;;20.80;62.30;;;;;;5055717;28;20321;-80
2023/05/30 06:29:42;;;;;;;6.37;3.17;;;20.90;62.00;;;;;;5055613;28;20300;-78
2023/05/30 06:32:10;;;;;;;5.90;3.30;;;20.90;61.30;;;;;;5055166;28;20204;-78
2023/05/30 06:34:38;;;;;;;5.50;3.43;;;21.00;60.80;;;;;;5040468;28;20301;-80
2023/05/30 06:37:06;;;;;;;5.23;3.03;;;21.00;60.40;;;;;;5035745;28;20603;-80
2023/05/30 06:39:32;;;;;;;4.93;2.87;;;21.00;60.10;;;;;;5034954;28;20210;-76
2023/05/30 06:42:00;;;;;;;5.57;3.03;;;21.10;59.90;;;;;;5035844;28;20597;-80
2023/05/30 06:44:27;;;;;;;8.83;3.23;;;21.20;59.90;;;;;;5050914;28;20202;-80
2023/05/30 06:46:55;;;;;;;4.00;3.00;;;21.30;59.90;;;;;;5055503;28;20198;-79
2023/05/30 06:49:22;;;;;;;7.67;3.27;;;21.40;59.20;;;;;;5053055;28;20230;-76
2023/05/30 06:51:50;;;;;;;5.33;3.13;;;21.40;59.00;;;;;;5054803;28;20222;-80
2023/05/30 06:54:18;;;;;;;6.80;3.30;;;21.50;58.70;;;;;;5053881;28;20906;-77
2023/05/30 06:56:45;;;;;;;6.73;3.13;;;21.60;58.20;;;;;;5054891;28;20222;-75
2023/05/30 06:59:11;;;;;;;5.10;2.97;;;21.60;58.00;;;;;;5052903;28;20197;-76
2023/05/30 07:01:38;;;;;;;3.83;2.90;;;21.70;57.80;;;;;;5054348;28;20313;-78
2023/05/30 07:04:07;;;;;;;3.23;2.60;;;21.80;57.60;;;;;;5054289;28;20222;-76
2023/05/30 07:06:35;;;;;;;3.80;2.60;;;21.80;57.50;;;;;;5053730;28;20296;-75
2023/05/30 07:09:03;;;;;;;4.30;2.63;;;21.80;57.30;;;;;;5044731;28;20224;-77
2023/05/30 07:11:30;;;;;;;5.40;2.87;;;22.00;57.20;;;;;;5054304;28;20824;-77
2023/05/30 07:13:57;;;;;;;4.90;3.00;;;22.10;57.30;;;;;;5049846;28;20523;-75
2023/05/30 07:16:24;;;;;;;4.10;2.83;;;22.10;57.10;;;;;;5053764;28;20208;-74
2023/05/30 07:18:51;;;;;;;5.77;3.13;;;22.30;56.80;;;;;;5053945;28;20198;-76
2023/05/30 07:21:18;;;;;;;6.43;3.43;;;22.30;56.60;;;;;;5041964;28;20199;-75
2023/05/30 07:23:45;;;;;;;5.73;3.23;;;22.40;56.10;;;;;;5009795;28;20328;-76
2023/05/30 07:26:14;;;;;;;6.23;2.80;;;22.40;55.80;;;;;;5053025;28;20198;-76
2023/05/30 07:28:41;;;;;;;3.50;2.90;;;22.50;56.00;;;;;;5047490;28;20207;-76
2023/05/30 07:31:08;;;;;;;5.60;3.00;;;22.60;55.60;;;;;;5044128;28;20234;-76
2023/05/30 07:33:34;;;;;;;5.20;2.77;;;22.70;55.40;;;;;;5048872;28;20297;-78
2023/05/30 07:36:01;;;;;;;4.63;2.77;;;22.80;55.40;;;;;;5047958;28;20643;-75
2023/05/30 07:38:30;;;;;;;4.97;3.00;;;22.90;54.90;;;;;;5051369;28;20207;-76
2023/05/30 07:40:57;;;;;;;5.40;3.33;;;23.00;54.60;;;;;;5039659;28;20289;-78
2023/05/30 07:43:25;;;;;;;4.43;3.40;;;23.00;54.10;;;;;;5049837;28;20202;-74
2023/05/30 07:45:52;;;;;;;6.20;3.10;;;23.10;53.90;;;;;;5050933;28;20218;-75
2023/05/30 07:48:19;;;;;;;4.70;2.80;;;23.20;54.00;;;;;;5051714;28;20615;-76
2023/05/30 07:50:46;;;;;;;4.83;3.10;;;23.30;54.30;;;;;;5050352;28;20226;-76
2023/05/30 07:53:13;;;;;;;6.07;2.90;;;23.40;54.20;;;;;;5040770;28;20202;-75
2023/05/30 07:55:42;;;;;;;4.33;2.70;;;23.40;53.30;;;;;;5048473;28;20669;-75
2023/05/30 07:58:09;;;;;;;3.90;2.63;;;23.50;53.20;;;;;;5050718;28;20250;-75
2023/05/30 08:00:37;;;;;;;4.43;2.70;;;23.60;53.30;;;;;;5050906;28;20253;-75
2023/05/30 08:03:04;;;;;;;4.90;2.87;;;23.60;53.20;;;;;;5050854;28;20219;-77
2023/05/30 08:05:31;;;;;;;6.13;2.93;;;23.70;53.10;;;;;;5015609;28;20599;-77
2023/05/30 08:07:58;;;;;;;4.03;2.63;;;23.80;52.70;;;;;;5050546;28;20669;-75
2023/05/30 08:10:24;;;;;;;4.03;2.53;;;23.80;53.20;;;;;;5050703;28;20217;-76
2023/05/30 08:12:52;;;;;;;4.23;2.40;;;23.80;53.00;;;;;;5050664;28;20824;-74
2023/05/30 08:15:19;;;;;;;3.80;2.90;;;23.90;52.50;;;;;;5051165;28;20207;-75
2023/05/30 08:17:48;;;;;;;7.40;3.10;;;23.90;52.40;;;;;;5049765;28;20288;-74
2023/05/30 08:20:16;;;;;;;3.90;2.73;;;24.00;52.40;;;;;;5050421;28;20205;-76
2023/05/30 08:22:43;;;;;;;4.83;2.80;;;24.10;51.90;;;;;;5050477;28;20205;-76
2023/05/30 08:25:10;;;;;;;4.73;2.67;;;24.10;51.40;;;;;;5050923;28;20212;-75
2023/05/30 08:27:38;;;;;;;4.77;2.83;;;24.20;51.30;;;;;;5050604;28;20628;-76
2023/05/30 08:30:06;;;;;;;4.03;2.60;;;24.30;51.10;;;;;;5050541;28;20220;-76
2023/05/30 08:32:33;;;;;;;4.43;2.83;;;24.40;50.50;;;;;;5049827;28;20224;-75
2023/05/30 08:35:02;;;;;;;3.00;2.47;;;24.50;50.70;;;;;;5041823;28;20581;-76
2023/05/30 08:37:29;;;;;;;4.40;2.70;;;24.60;50.40;;;;;;5040480;28;20202;-77
2023/05/30 08:39:55;;;;;;;4.47;2.70;;;24.80;50.80;;;;;;5050168;28;20323;-75
2023/05/30 08:42:22;;;;;;;6.43;2.60;;;24.80;50.10;;;;;;5050179;28;20198;-76
2023/05/30 08:44:49;;;;;;;4.83;2.57;;;24.90;49.40;;;;;;5050612;28;20244;-75
2023/05/30 08:47:17;;;;;;;5.23;2.70;;;24.90;49.30;;;;;;5049966;28;20237;-76
2023/05/30 08:49:45;;;;;;;4.60;2.57;;;25.00;49.30;;;;;;5032169;28;20260;-77
2023/05/30 08:52:15;;;;;;;5.27;2.70;;;25.00;48.50;;;;;;5049307;28;20226;-77
2023/05/30 08:54:47;;;;;;;5.47;2.43;;;25.00;48.60;;;;;;5013234;28;20206;-76
2023/05/30 08:57:20;;;;;;;3.57;2.50;;;25.10;49.00;;;;;;5040738;28;20201;-76
2023/05/30 08:59:50;;;;;;;3.97;2.47;;;25.20;48.10;;;;;;5050750;28;20620;-76
2023/05/30 09:02:21;;;;;;;4.43;2.80;;;25.30;48.60;;;;;;5049423;28;20275;-75
2023/05/30 09:04:50;;;;;;;4.50;2.70;;;25.30;48.30;;;;;;5050099;28;20216;-75
2023/05/30 09:07:21;;;;;;;4.93;3.20;;;25.40;48.40;;;;;;5050196;28;20547;-75
2023/05/30 09:09:48;;;;;;;5.10;2.70;;;25.50;48.80;;;;;;5049245;28;20765;-76
2023/05/30 09:12:15;;;;;;;6.33;3.13;;;25.60;47.40;;;;;;5049729;28;20684;-77
2023/05/30 09:14:42;;;;;;;5.63;2.77;;;25.70;47.10;;;;;;5050020;28;20208;-77
2023/05/30 09:17:10;;;;;;;4.20;2.50;;;25.80;47.60;;;;;;5049969;28;20602;-75
2023/05/30 09:19:38;;;;;;;5.20;2.80;;;25.90;46.90;;;;;;5049473;28;20201;-77
2023/05/30 09:22:07;;;;;;;3.97;2.23;;;25.90;46.70;;;;;;5051385;28;20277;-74
2023/05/30 09:24:59;;;;;;;3.97;2.60;;;26.00;46.90;;;;;;5051114;28;20209;-77
2023/05/30 09:27:28;;;;;;;3.03;2.40;;;26.00;46.10;;;;;;5052189;28;20723;-75
2023/05/30 09:29:55;;;;;;;5.03;2.70;;;26.10;46.70;;;;;;5052797;28;20668;-76
2023/05/30 09:32:28;;;;;;;4.10;2.80;;;26.20;47.00;;;;;;5054238;28;20232;-78
2023/05/30 09:34:57;;;;;;;4.77;2.90;;;26.20;46.30;;;;;;5051451;28;20206;-77
2023/05/30 09:37:24;;;;;;;6.90;2.73;;;26.30;46.20;;;;;;5055279;28;20289;-75
2023/05/30 09:40:09;;;;;;;4.07;2.40;;;26.30;45.30;;;;;;5035649;28;20202;-77
2023/05/30 09:42:41;;;;;;;4.50;2.60;;;26.40;46.90;;;;;;5052950;28;20214;-76
2023/05/30 09:45:09;;;;;;;4.20;2.53;;;26.50;46.20;;;;;;5053630;28;20256;-77
2023/05/30 09:47:39;;;;;;;2.90;2.60;;;26.60;45.90;;;;;;5050219;28;20202;-77
2023/05/30 09:50:07;;;;;;;5.03;2.50;;;26.70;45.40;;;;;;5040509;28;20244;-76
2023/05/30 09:52:34;;;;;;;3.90;2.47;;;26.80;46.00;;;;;;5052510;28;20229;-78
2023/05/30 09:55:05;;;;;;;4.67;2.50;;;26.80;45.10;;;;;;5053626;28;20237;-75
2023/05/30 09:57:36;;;;;;;4.37;2.63;;;26.90;44.60;;;;;;5053432;28;20209;-75
2023/05/30 10:00:09;;;;;;;5.03;2.60;;;26.90;44.90;;;;;;5052916;28;20252;-73
2023/05/30 10:02:36;;;;;;;5.70;2.73;;;27.00;45.00;;;;;;5052950;28;20203;-76
2023/05/30 10:05:03;;;;;;;6.40;3.00;;;27.00;44.90;;;;;;5053650;28;20566;-75
2023/05/30 10:07:31;;;;;;;6.33;2.83;;;27.10;44.50;;;;;;5053419;28;20211;-76
2023/05/30 10:09:59;;;;;;;4.83;3.00;;;27.10;44.40;;;;;;5052922;28;20331;-76
2023/05/30 10:12:26;;;;;;;4.27;2.97;;;27.20;44.30;;;;;;5053258;28;20678;-75
2023/05/30 10:14:54;;;;;;;5.87;2.50;;;27.20;44.40;;;;;;5053156;28;20213;-75
2023/05/30 10:17:25;;;;;;;3.87;3.00;;;27.40;44.50;;;;;;5052737;28;20208;-76
2023/05/30 10:19:59;;;;;;;4.03;2.73;;;27.40;44.20;;;;;;5052984;28;20299;-76
2023/05/30 10:22:29;;;;;;;5.20;2.83;;;27.50;43.90;;;;;;5053280;28;20844;-75
2023/05/30 10:24:56;;;;;;;3.70;2.50;;;27.50;44.20;;;;;;5052984;28;20203;-75
2023/05/30 10:27:28;;;;;;;4.23;2.60;;;27.70;44.40;;;;;;5052847;28;20651;-75
2023/05/30 10:30:04;;;;;;;3.47;2.63;;;27.70;43.90;;;;;;5052530;28;20236;-76
2023/05/30 10:32:33;;;;;;;4.00;2.50;;;27.80;44.10;;;;;;5052585;28;20626;-77
2023/05/30 10:35:07;;;;;;;4.27;2.77;;;27.90;43.60;;;;;;5052675;28;20278;-74
2023/05/30 10:37:36;;;;;;;3.90;2.70;;;27.90;43.60;;;;;;5053028;28;20296;-76
2023/05/30 10:40:22;;;;;;;4.83;2.70;;;27.90;42.80;;;;;;5052307;28;20518;-75
2023/05/30 10:43:03;;;;;;;4.17;3.00;;;27.90;42.30;;;;;;5052391;28;20203;-78
2023/05/30 10:45:43;;;;;;;5.13;2.73;;;27.90;42.60;;;;;;5052104;28;20307;-75
2023/05/30 10:48:22;;;;;;;3.20;2.70;;;28.00;43.80;;;;;;5034968;28;20200;-74
2023/05/30 10:50:55;;;;;;;5.23;2.57;;;28.00;42.40;;;;;;5000559;28;20205;-75
2023/05/30 10:53:22;;;;;;;4.07;2.50;;;28.10;42.60;;;;;;5052306;28;20643;-77
2023/05/30 10:55:50;;;;;;;3.63;2.90;;;28.20;42.00;;;;;;5052099;28;20202;-74
2023/05/30 10:58:37;;;;;;;4.63;2.90;;;28.30;42.10;;;;;;5034803;28;20731;-76
2023/05/30 11:01:25;;;;;;;6.13;2.80;;;28.40;42.50;;;;;;4982484;28;20220;-76
2023/05/30 11:04:05;;;;;;;5.27;3.10;;;28.40;41.30;;;;;;5052119;28;20610;-74
2023/05/30 11:06:35;;;;;;;4.07;3.00;;;28.50;41.70;;;;;;5051576;28;20212;-75
2023/05/30 11:09:07;;;;;;;6.67;2.93;;;28.50;41.90;;;;;;5052161;28;20280;-75
2023/05/30 11:11:35;;;;;;;5.73;2.97;;;28.50;42.20;;;;;;5051426;28;20225;-74
2023/05/30 11:14:06;;;;;;;4.53;2.60;;;28.60;41.80;;;;;;5046332;28;20210;-74
2023/05/30 11:16:47;;;;;;;5.37;2.90;;;28.70;41.60;;;;;;5044151;28;20205;-75
2023/05/30 11:19:14;;;;;;;5.40;3.17;;;28.70;41.60;;;;;;5039083;28;20331;-74
2023/05/30 11:21:57;;;;;;;5.80;2.70;;;28.80;41.50;;;;;;5050903;28;20220;-73
2023/05/30 11:24:24;;;;;;;5.63;3.23;;;28.80;41.30;;;;;;5049613;28;20312;-73
2023/05/30 11:27:31;;;;;;;4.90;3.07;;;28.90;41.90;;;;;;5051421;28;20212;-74
2023/05/30 11:29:58;;;;;;;5.17;3.10;;;28.90;41.60;;;;;;5043963;28;20557;-74
2023/05/30 11:32:28;;;;;;;4.97;3.17;;;29.10;41.70;;;;;;5031375;28;20230;-74
2023/05/30 11:34:58;;;;;;;5.03;2.73;;;29.10;40.90;;;;;;5039412;28;20280;-73
2023/05/30 11:37:26;;;;;;;6.03;3.10;;;29.10;41.30;;;;;;5051579;28;20209;-73
2023/05/30 11:39:55;;;;;;;4.57;3.07;;;29.10;40.30;;;;;;5050921;28;20205;-74
2023/05/30 11:42:22;;;;;;;4.87;3.03;;;29.20;40.90;;;;;;5051371;28;20229;-75
2023/05/30 11:44:49;;;;;;;5.10;3.00;;;29.20;40.40;;;;;;5050508;28;20197;-75
2023/05/30 11:47:18;;;;;;;3.73;2.60;;;29.30;40.40;;;;;;5051713;28;20205;-75
2023/05/30 11:49:46;;;;;;;4.87;2.93;;;29.40;40.50;;;;;;5050932;28;20265;-73
2023/05/30 11:52:14;;;;;;;4.60;3.03;;;29.40;39.70;;;;;;5050851;28;20761;-73
2023/05/30 11:54:41;;;;;;;3.60;2.67;;;29.40;40.70;;;;;;5050598;28;20201;-74
2023/05/30 11:57:11;;;;;;;6.33;3.13;;;29.60;39.90;;;;;;5050975;28;20208;-75
2023/05/30 11:59:42;;;;;;;3.43;3.13;;;29.60;40.60;;;;;;5049992;28;20284;-76
2023/05/30 12:02:09;;;;;;;5.37;3.07;;;29.70;40.40;;;;;;5049563;28;20314;-75
2023/05/30 12:04:37;;;;;;;4.57;3.33;;;29.70;39.70;;;;;;5049334;28;20205;-74
2023/05/30 12:07:07;;;;;;;4.57;3.00;;;29.70;39.50;;;;;;5049869;28;20209;-74
2023/05/30 12:09:38;;;;;;;3.40;3.00;;;29.70;39.00;;;;;;5030385;28;20211;-75
2023/05/30 12:12:06;;;;;;;4.87;2.87;;;29.70;38.40;;;;;;5031034;28;20230;-73
2023/05/30 12:15:00;;;;;;;6.67;2.80;;;29.80;39.30;;;;;;5050418;28;20209;-74
2023/05/30 12:17:28;;;;;;;5.03;3.13;;;29.80;37.40;;;;;;5050713;28;20561;-75
2023/05/30 12:20:00;;;;;;;4.07;2.87;;;29.80;38.10;;;;;;5050580;28;20208;-74
2023/05/30 12:22:30;;;;;;;4.63;2.93;;;29.80;38.30;;;;;;5033696;28;20197;-75
2023/05/30 12:24:58;;;;;;;4.07;3.20;;;29.90;38.60;;;;;;5050513;28;20534;-76
2023/05/30 12:27:26;;;;;;;5.03;3.30;;;29.90;39.10;;;;;;5050126;28;20206;-74
2023/05/30 12:29:54;;;;;;;3.93;2.77;;;30.00;38.60;;;;;;5050153;28;20661;-73
2023/05/30 12:32:24;;;;;;;3.57;2.80;;;30.00;38.20;;;;;;5050415;28;20682;-74
2023/05/30 12:34:53;;;;;;;3.40;3.10;;;30.00;37.30;;;;;;5038667;28;20194;-73
2023/05/30 12:37:20;;;;;;;5.33;3.30;;;30.10;38.00;;;;;;5050634;28;20856;-74
2023/05/30 12:39:52;;;;;;;4.63;3.03;;;30.10;37.80;;;;;;5050108;28;20561;-75
2023/05/30 12:42:24;;;;;;;6.33;2.63;;;30.20;37.90;;;;;;5049962;28;20201;-74
2023/05/30 12:44:52;;;;;;;4.80;3.03;;;30.30;37.40;;;;;;5050006;28;20671;-75
2023/05/30 12:47:19;;;;;;;5.17;3.07;;;30.30;36.90;;;;;;5050057;28;20296;-76
2023/05/30 12:49:47;;;;;;;3.40;2.73;;;30.30;37.30;;;;;;5047342;28;20535;-75
2023/05/30 12:52:15;;;;;;;5.27;2.90;;;30.40;37.40;;;;;;5050329;28;20221;-75
2023/05/30 12:54:43;;;;;;;3.40;2.70;;;30.50;37.40;;;;;;5041492;28;20241;-74